sensor_id;sensor_type;location;lat;lon;timestamp;temperature;humidity
66596;SHT31;59017;49.252;18.838;2023-01-28T00:01:10;18.46;44.35
66596;SHT31;59017;49.252;18.838;2023-01-28T00:03:35;18.44;43.68
66596;SHT31;59017;49.252;18.838;2023-01-28T00:06:08;18.44;44.86
66596;SHT31;59017;49.252;18.838;2023-01-28T00:08:34;18.43;43.93
66596;SHT31;59017;49.252;18.838;2023-01-28T00:11:00;18.47;44.27
66596;SHT31;59017;49.252;18.838;2023-01-28T00:13:26;18.46;44.05
66596;SHT31;59017;49.252;18.838;2023-01-28T00:15:55;18.46;43.24
66596;SHT31;59017;49.252;18.838;2023-01-28T00:18:21;18.46;43.88
66596;SHT31;59017;49.252;18.838;2023-01-28T00:23:21;18.50;44.56
66596;SHT31;59017;49.252;18.838;2023-01-28T00:25:46;18.49;43.20
66596;SHT31;59017;49.252;18.838;2023-01-28T00:28:11;18.53;44.65
66596;SHT31;59017;49.252;18.838;2023-01-28T00:30:37;18.50;44.37
66596;SHT31;59017;49.252;18.838;2023-01-28T00:33:03;18.54;43.42
66596;SHT31;59017;49.252;18.838;2023-01-28T00:35:28;18.54;44.58
66596;SHT31;59017;49.252;18.838;2023-01-28T00:37:54;18.50;43.02
66596;SHT31;59017;49.252;18.838;2023-01-28T00:40:19;18.46;44.97
66596;SHT31;59017;49.252;18.838;2023-01-28T00:42:44;18.42;44.32
66596;SHT31;59017;49.252;18.838;2023-01-28T00:45:10;18.43;44.02
66596;SHT31;59017;49.252;18.838;2023-01-28T00:47:35;18.44;44.76
66596;SHT31;59017;49.252;18.838;2023-01-28T00:50:01;18.43;44.83
66596;SHT31;59017;49.252;18.838;2023-01-28T00:52:26;18.44;45.61
66596;SHT31;59017;49.252;18.838;2023-01-28T00:54:51;18.43;44.07
66596;SHT31;59017;49.252;18.838;2023-01-28T00:57:17;18.42;43.90
66596;SHT31;59017;49.252;18.838;2023-01-28T00:59:42;18.32;44.26
66596;SHT31;59017;49.252;18.838;2023-01-28T01:02:07;18.37;43.81
66596;SHT31;59017;49.252;18.838;2023-01-28T01:04:39;18.39;44.21
66596;SHT31;59017;49.252;18.838;2023-01-28T01:07:04;18.34;44.59
66596;SHT31;59017;49.252;18.838;2023-01-28T01:09:30;18.34;45.05
66596;SHT31;59017;49.252;18.838;2023-01-28T01:11:55;18.30;43.92
66596;SHT31;59017;49.252;18.838;2023-01-28T01:14:21;18.34;43.35
66596;SHT31;59017;49.252;18.838;2023-01-28T01:16:46;18.34;44.06
66596;SHT31;59017;49.252;18.838;2023-01-28T01:19:12;18.40;44.41
66596;SHT31;59017;49.252;18.838;2023-01-28T01:21:37;18.39;44.33
66596;SHT31;59017;49.252;18.838;2023-01-28T01:24:02;18.43;44.91
66596;SHT31;59017;49.252;18.838;2023-01-28T01:26:28;18.44;44.25
66596;SHT31;59017;49.252;18.838;2023-01-28T01:28:53;18.36;44.58
66596;SHT31;59017;49.252;18.838;2023-01-28T01:31:19;18.42;44.09
66596;SHT31;59017;49.252;18.838;2023-01-28T01:33:45;18.44;44.84
66596;SHT31;59017;49.252;18.838;2023-01-28T01:36:12;18.40;44.62
66596;SHT31;59017;49.252;18.838;2023-01-28T01:38:38;18.39;44.53
66596;SHT31;59017;49.252;18.838;2023-01-28T01:41:04;18.44;43.94
66596;SHT31;59017;49.252;18.838;2023-01-28T01:43:46;18.43;44.33
66596;SHT31;59017;49.252;18.838;2023-01-28T01:46:11;18.42;43.49
66596;SHT31;59017;49.252;18.838;2023-01-28T01:48:37;18.40;44.31
66596;SHT31;59017;49.252;18.838;2023-01-28T01:51:04;18.36;44.74
66596;SHT31;59017;49.252;18.838;2023-01-28T01:53:33;18.40;44.28
66596;SHT31;59017;49.252;18.838;2023-01-28T01:56:00;18.40;44.57
66596;SHT31;59017;49.252;18.838;2023-01-28T01:58:29;18.40;44.23
66596;SHT31;59017;49.252;18.838;2023-01-28T02:00:55;18.42;44.45
66596;SHT31;59017;49.252;18.838;2023-01-28T02:03:26;18.43;44.67
66596;SHT31;59017;49.252;18.838;2023-01-28T02:05:53;18.44;45.73
66596;SHT31;59017;49.252;18.838;2023-01-28T02:08:18;18.50;46.14
66596;SHT31;59017;49.252;18.838;2023-01-28T02:11:08;18.43;43.77
66596;SHT31;59017;49.252;18.838;2023-01-28T02:13:34;18.39;45.37
66596;SHT31;59017;49.252;18.838;2023-01-28T02:16:00;18.42;45.00
66596;SHT31;59017;49.252;18.838;2023-01-28T02:18:27;18.39;45.41
66596;SHT31;59017;49.252;18.838;2023-01-28T02:31:12;18.43;44.44
66596;SHT31;59017;49.252;18.838;2023-01-28T02:33:49;18.44;45.63
66596;SHT31;59017;49.252;18.838;2023-01-28T02:37:02;18.42;44.32
66596;SHT31;59017;49.252;18.838;2023-01-28T02:39:02;18.42;44.09
66596;SHT31;59017;49.252;18.838;2023-01-28T02:41:34;18.40;44.33
66596;SHT31;59017;49.252;18.838;2023-01-28T02:44:00;18.37;44.70
66596;SHT31;59017;49.252;18.838;2023-01-28T02:49:11;18.36;45.17
66596;SHT31;59017;49.252;18.838;2023-01-28T02:51:42;18.44;45.32
66596;SHT31;59017;49.252;18.838;2023-01-28T02:54:44;18.40;43.66
66596;SHT31;59017;49.252;18.838;2023-01-28T02:57:18;18.33;44.31
66596;SHT31;59017;49.252;18.838;2023-01-28T02:59:54;18.39;44.60
66596;SHT31;59017;49.252;18.838;2023-01-28T03:04:48;18.37;43.90
66596;SHT31;59017;49.252;18.838;2023-01-28T03:07:16;18.34;44.95
66596;SHT31;59017;49.252;18.838;2023-01-28T03:09:43;18.37;42.74
66596;SHT31;59017;49.252;18.838;2023-01-28T03:12:11;18.32;43.63
66596;SHT31;59017;49.252;18.838;2023-01-28T03:15:01;18.33;43.20
66596;SHT31;59017;49.252;18.838;2023-01-28T03:17:51;18.28;44.65
66596;SHT31;59017;49.252;18.838;2023-01-28T03:20:38;18.32;42.95
66596;SHT31;59017;49.252;18.838;2023-01-28T03:23:26;18.29;44.61
66596;SHT31;59017;49.252;18.838;2023-01-28T03:26:11;18.30;44.31
66596;SHT31;59017;49.252;18.838;2023-01-28T03:28:57;18.29;44.10
66596;SHT31;59017;49.252;18.838;2023-01-28T03:31:42;18.33;44.70
66596;SHT31;59017;49.252;18.838;2023-01-28T03:34:26;18.34;44.06
66596;SHT31;59017;49.252;18.838;2023-01-28T03:37:10;18.37;43.65
66596;SHT31;59017;49.252;18.838;2023-01-28T03:39:38;18.34;44.12
66596;SHT31;59017;49.252;18.838;2023-01-28T03:42:08;18.29;44.03
66596;SHT31;59017;49.252;18.838;2023-01-28T03:44:33;18.29;43.28
66596;SHT31;59017;49.252;18.838;2023-01-28T03:47:18;18.26;43.89
66596;SHT31;59017;49.252;18.838;2023-01-28T03:49:44;18.30;44.47
66596;SHT31;59017;49.252;18.838;2023-01-28T03:52:10;18.37;44.89
66596;SHT31;59017;49.252;18.838;2023-01-28T03:54:36;18.37;44.16
66596;SHT31;59017;49.252;18.838;2023-01-28T03:57:01;18.39;44.48
66596;SHT31;59017;49.252;18.838;2023-01-28T03:59:26;18.42;44.30
66596;SHT31;59017;49.252;18.838;2023-01-28T04:01:52;18.40;44.48
66596;SHT31;59017;49.252;18.838;2023-01-28T04:04:17;18.42;44.90
66596;SHT31;59017;49.252;18.838;2023-01-28T04:06:49;18.42;45.29
66596;SHT31;59017;49.252;18.838;2023-01-28T04:09:14;18.39;44.47
66596;SHT31;59017;49.252;18.838;2023-01-28T04:11:40;18.36;43.90
66596;SHT31;59017;49.252;18.838;2023-01-28T04:14:05;18.39;43.96
66596;SHT31;59017;49.252;18.838;2023-01-28T04:16:30;18.40;44.54
66596;SHT31;59017;49.252;18.838;2023-01-28T04:18:56;18.43;44.10
66596;SHT31;59017;49.252;18.838;2023-01-28T04:21:22;18.40;43.74
66596;SHT31;59017;49.252;18.838;2023-01-28T04:23:47;18.42;44.06
66596;SHT31;59017;49.252;18.838;2023-01-28T04:26:12;18.43;44.14
66596;SHT31;59017;49.252;18.838;2023-01-28T04:28:38;18.36;44.47
66596;SHT31;59017;49.252;18.838;2023-01-28T04:31:03;18.42;44.97
66596;SHT31;59017;49.252;18.838;2023-01-28T04:33:28;18.37;44.00
66596;SHT31;59017;49.252;18.838;2023-01-28T04:35:53;18.39;45.39
66596;SHT31;59017;49.252;18.838;2023-01-28T04:38:19;18.39;44.07
66596;SHT31;59017;49.252;18.838;2023-01-28T04:40:47;18.37;43.14
66596;SHT31;59017;49.252;18.838;2023-01-28T04:43:13;18.39;43.80
66596;SHT31;59017;49.252;18.838;2023-01-28T04:45:39;18.42;44.23
66596;SHT31;59017;49.252;18.838;2023-01-28T04:48:05;18.42;43.54
66596;SHT31;59017;49.252;18.838;2023-01-28T04:50:30;18.44;43.55
66596;SHT31;59017;49.252;18.838;2023-01-28T04:52:55;18.46;44.07
66596;SHT31;59017;49.252;18.838;2023-01-28T04:55:21;18.49;44.68
66596;SHT31;59017;49.252;18.838;2023-01-28T04:57:46;18.47;44.29
66596;SHT31;59017;49.252;18.838;2023-01-28T05:00:12;18.51;43.17
66596;SHT31;59017;49.252;18.838;2023-01-28T05:02:38;18.44;43.83
66596;SHT31;59017;49.252;18.838;2023-01-28T05:05:03;18.49;43.02
66596;SHT31;59017;49.252;18.838;2023-01-28T05:07:33;18.56;44.28
66596;SHT31;59017;49.252;18.838;2023-01-28T05:09:58;18.51;43.35
66596;SHT31;59017;49.252;18.838;2023-01-28T05:12:23;18.53;43.49
66596;SHT31;59017;49.252;18.838;2023-01-28T05:14:48;18.49;43.74
66596;SHT31;59017;49.252;18.838;2023-01-28T05:17:14;18.50;44.09
66596;SHT31;59017;49.252;18.838;2023-01-28T05:19:39;18.49;43.28
66596;SHT31;59017;49.252;18.838;2023-01-28T05:22:04;18.51;42.82
66596;SHT31;59017;49.252;18.838;2023-01-28T05:24:30;18.51;43.90
66596;SHT31;59017;49.252;18.838;2023-01-28T05:26:55;18.47;43.50
66596;SHT31;59017;49.252;18.838;2023-01-28T05:29:20;18.43;44.15
66596;SHT31;59017;49.252;18.838;2023-01-28T05:31:46;18.44;44.01
66596;SHT31;59017;49.252;18.838;2023-01-28T05:34:11;18.42;44.34
66596;SHT31;59017;49.252;18.838;2023-01-28T05:36:37;18.42;44.85
66596;SHT31;59017;49.252;18.838;2023-01-28T05:39:02;18.40;44.14
66596;SHT31;59017;49.252;18.838;2023-01-28T05:41:27;18.30;43.07
66596;SHT31;59017;49.252;18.838;2023-01-28T05:43:53;18.34;44.53
66596;SHT31;59017;49.252;18.838;2023-01-28T05:46:18;18.39;43.04
66596;SHT31;59017;49.252;18.838;2023-01-28T05:48:43;18.40;44.51
66596;SHT31;59017;49.252;18.838;2023-01-28T05:51:10;18.37;43.24
66596;SHT31;59017;49.252;18.838;2023-01-28T05:53:35;18.33;44.40
66596;SHT31;59017;49.252;18.838;2023-01-28T05:56:00;18.36;44.09
66596;SHT31;59017;49.252;18.838;2023-01-28T05:58:26;18.37;44.56
66596;SHT31;59017;49.252;18.838;2023-01-28T06:00:54;18.37;44.23
66596;SHT31;59017;49.252;18.838;2023-01-28T06:03:20;18.37;44.13
66596;SHT31;59017;49.252;18.838;2023-01-28T06:05:46;18.39;43.47
66596;SHT31;59017;49.252;18.838;2023-01-28T06:08:12;18.37;44.47
66596;SHT31;59017;49.252;18.838;2023-01-28T06:10:37;18.39;43.57
66596;SHT31;59017;49.252;18.838;2023-01-28T06:13:02;18.39;43.75
66596;SHT31;59017;49.252;18.838;2023-01-28T06:15:27;18.43;44.92
66596;SHT31;59017;49.252;18.838;2023-01-28T06:17:53;18.42;43.57
66596;SHT31;59017;49.252;18.838;2023-01-28T06:20:18;18.40;43.86
66596;SHT31;59017;49.252;18.838;2023-01-28T06:22:43;18.40;43.98
66596;SHT31;59017;49.252;18.838;2023-01-28T06:25:09;18.40;43.41
66596;SHT31;59017;49.252;18.838;2023-01-28T06:27:34;18.39;44.23
66596;SHT31;59017;49.252;18.838;2023-01-28T06:30:00;18.37;43.22
66596;SHT31;59017;49.252;18.838;2023-01-28T06:32:26;18.40;44.40
66596;SHT31;59017;49.252;18.838;2023-01-28T06:34:51;18.42;43.98
66596;SHT31;59017;49.252;18.838;2023-01-28T06:37:16;18.40;43.39
66596;SHT31;59017;49.252;18.838;2023-01-28T06:39:41;18.39;43.57
66596;SHT31;59017;49.252;18.838;2023-01-28T06:42:07;18.37;43.98
66596;SHT31;59017;49.252;18.838;2023-01-28T06:44:32;18.36;43.41
66596;SHT31;59017;49.252;18.838;2023-01-28T06:46:57;18.33;44.38
66596;SHT31;59017;49.252;18.838;2023-01-28T06:49:23;18.33;44.13
66596;SHT31;59017;49.252;18.838;2023-01-28T06:51:48;18.33;43.70
66596;SHT31;59017;49.252;18.838;2023-01-28T06:54:14;18.34;44.05
66596;SHT31;59017;49.252;18.838;2023-01-28T06:56:39;18.36;43.22
66596;SHT31;59017;49.252;18.838;2023-01-28T06:59:05;18.32;43.80
66596;SHT31;59017;49.252;18.838;2023-01-28T07:01:30;18.36;43.92
66596;SHT31;59017;49.252;18.838;2023-01-28T07:03:55;18.36;42.16
66596;SHT31;59017;49.252;18.838;2023-01-28T07:06:21;18.36;44.50
66596;SHT31;59017;49.252;18.838;2023-01-28T07:08:46;18.37;44.41
66596;SHT31;59017;49.252;18.838;2023-01-28T07:11:12;18.43;44.36
66596;SHT31;59017;49.252;18.838;2023-01-28T07:13:37;18.49;44.99
66596;SHT31;59017;49.252;18.838;2023-01-28T07:16:02;18.49;44.16
66596;SHT31;59017;49.252;18.838;2023-01-28T07:18:28;18.50;44.48
66596;SHT31;59017;49.252;18.838;2023-01-28T07:20:53;18.53;44.29
66596;SHT31;59017;49.252;18.838;2023-01-28T07:23:19;18.47;43.96
66596;SHT31;59017;49.252;18.838;2023-01-28T07:25:44;18.44;44.76
66596;SHT31;59017;49.252;18.838;2023-01-28T07:28:09;18.43;44.54
66596;SHT31;59017;49.252;18.838;2023-01-28T07:30:36;18.47;43.96
66596;SHT31;59017;49.252;18.838;2023-01-28T07:33:01;18.40;43.17
66596;SHT31;59017;49.252;18.838;2023-01-28T07:35:26;18.37;43.43
66596;SHT31;59017;49.252;18.838;2023-01-28T07:37:52;18.36;43.74
66596;SHT31;59017;49.252;18.838;2023-01-28T07:40:18;18.36;44.05
66596;SHT31;59017;49.252;18.838;2023-01-28T07:42:43;18.34;44.01
66596;SHT31;59017;49.252;18.838;2023-01-28T07:45:09;18.30;44.09
66596;SHT31;59017;49.252;18.838;2023-01-28T07:47:34;18.54;47.56
66596;SHT31;59017;49.252;18.838;2023-01-28T07:49:59;18.72;49.71
66596;SHT31;59017;49.252;18.838;2023-01-28T07:52:25;18.87;48.30
66596;SHT31;59017;49.252;18.838;2023-01-28T07:54:50;18.91;47.03
66596;SHT31;59017;49.252;18.838;2023-01-28T07:57:15;18.98;40.90
66596;SHT31;59017;49.252;18.838;2023-01-28T07:59:47;18.68;38.26
66596;SHT31;59017;49.252;18.838;2023-01-28T08:02:12;18.46;40.13
66596;SHT31;59017;49.252;18.838;2023-01-28T08:04:38;18.30;39.48
66596;SHT31;59017;49.252;18.838;2023-01-28T08:07:04;18.36;41.71
66596;SHT31;59017;49.252;18.838;2023-01-28T08:09:30;18.44;41.08
66596;SHT31;59017;49.252;18.838;2023-01-28T08:11:58;18.49;41.22
66596;SHT31;59017;49.252;18.838;2023-01-28T08:14:23;18.59;41.19
66596;SHT31;59017;49.252;18.838;2023-01-28T08:16:48;18.57;40.98
66596;SHT31;59017;49.252;18.838;2023-01-28T08:19:14;18.57;40.02
66596;SHT31;59017;49.252;18.838;2023-01-28T08:21:40;18.56;41.00
66596;SHT31;59017;49.252;18.838;2023-01-28T08:24:05;18.56;40.65
66596;SHT31;59017;49.252;18.838;2023-01-28T08:26:30;18.83;46.16
66596;SHT31;59017;49.252;18.838;2023-01-28T08:28:56;18.43;37.72
66596;SHT31;59017;49.252;18.838;2023-01-28T08:31:21;18.71;42.08
66596;SHT31;59017;49.252;18.838;2023-01-28T08:33:47;18.91;41.11
66596;SHT31;59017;49.252;18.838;2023-01-28T08:36:12;19.04;39.94
66596;SHT31;59017;49.252;18.838;2023-01-28T08:38:37;19.18;39.43
66596;SHT31;59017;49.252;18.838;2023-01-28T08:41:03;19.26;35.09
66596;SHT31;59017;49.252;18.838;2023-01-28T08:43:28;19.28;33.92
66596;SHT31;59017;49.252;18.838;2023-01-28T08:45:53;19.19;32.32
66596;SHT31;59017;49.252;18.838;2023-01-28T08:48:18;19.09;34.55
66596;SHT31;59017;49.252;18.838;2023-01-28T08:50:44;18.89;33.32
66596;SHT31;59017;49.252;18.838;2023-01-28T08:53:10;18.92;35.99
66596;SHT31;59017;49.252;18.838;2023-01-28T08:55:36;19.07;35.93
66596;SHT31;59017;49.252;18.838;2023-01-28T08:58:02;19.18;35.15
66596;SHT31;59017;49.252;18.838;2023-01-28T09:00:28;19.25;36.57
66596;SHT31;59017;49.252;18.838;2023-01-28T09:02:53;19.37;36.53
66596;SHT31;59017;49.252;18.838;2023-01-28T09:05:19;19.40;37.09
66596;SHT31;59017;49.252;18.838;2023-01-28T09:07:44;19.42;36.05
66596;SHT31;59017;49.252;18.838;2023-01-28T09:10:10;19.37;34.89
66596;SHT31;59017;49.252;18.838;2023-01-28T09:12:36;19.18;35.00
66596;SHT31;59017;49.252;18.838;2023-01-28T09:15:02;19.14;36.13
66596;SHT31;59017;49.252;18.838;2023-01-28T09:17:27;18.92;35.92
66596;SHT31;59017;49.252;18.838;2023-01-28T09:19:52;18.88;36.28
66596;SHT31;59017;49.252;18.838;2023-01-28T09:22:18;18.87;34.98
66596;SHT31;59017;49.252;18.838;2023-01-28T09:24:43;18.95;38.03
66596;SHT31;59017;49.252;18.838;2023-01-28T09:27:08;19.11;37.12
66596;SHT31;59017;49.252;18.838;2023-01-28T09:29:34;19.22;39.03
66596;SHT31;59017;49.252;18.838;2023-01-28T09:31:59;19.28;37.93
66596;SHT31;59017;49.252;18.838;2023-01-28T09:34:25;19.33;38.36
66596;SHT31;59017;49.252;18.838;2023-01-28T09:36:50;19.32;36.98
66596;SHT31;59017;49.252;18.838;2023-01-28T09:39:16;19.40;37.73
66596;SHT31;59017;49.252;18.838;2023-01-28T09:41:51;19.40;36.99
66596;SHT31;59017;49.252;18.838;2023-01-28T09:46:49;19.46;38.20
66596;SHT31;59017;49.252;18.838;2023-01-28T09:49:27;19.49;39.29
66596;SHT31;59017;49.252;18.838;2023-01-28T09:51:56;19.52;38.62
66596;SHT31;59017;49.252;18.838;2023-01-28T09:54:31;19.53;38.83
66596;SHT31;59017;49.252;18.838;2023-01-28T09:57:01;19.52;39.23
66596;SHT31;59017;49.252;18.838;2023-01-28T09:59:30;19.59;39.60
66596;SHT31;59017;49.252;18.838;2023-01-28T10:17:40;19.36;39.14
66596;SHT31;59017;49.252;18.838;2023-01-28T10:22:36;19.46;39.11
66596;SHT31;59017;49.252;18.838;2023-01-28T10:25:07;19.47;39.95
66596;SHT31;59017;49.252;18.838;2023-01-28T10:27:39;19.43;39.76
66596;SHT31;59017;49.252;18.838;2023-01-28T10:32:46;19.62;41.10
66596;SHT31;59017;49.252;18.838;2023-01-28T10:35:13;19.64;41.20
66596;SHT31;59017;49.252;18.838;2023-01-28T10:37:38;19.77;41.09
66596;SHT31;59017;49.252;18.838;2023-01-28T10:40:04;19.81;41.13
66596;SHT31;59017;49.252;18.838;2023-01-28T10:42:33;19.90;41.85
66596;SHT31;59017;49.252;18.838;2023-01-28T10:45:00;19.97;41.71
66596;SHT31;59017;49.252;18.838;2023-01-28T10:47:34;20.00;41.39
66596;SHT31;59017;49.252;18.838;2023-01-28T10:50:02;19.97;40.21
66596;SHT31;59017;49.252;18.838;2023-01-28T10:52:28;19.98;42.17
66596;SHT31;59017;49.252;18.838;2023-01-28T10:55:01;19.94;40.15
66596;SHT31;59017;49.252;18.838;2023-01-28T10:57:26;19.57;37.97
66596;SHT31;59017;49.252;18.838;2023-01-28T10:59:52;19.47;40.34
66596;SHT31;59017;49.252;18.838;2023-01-28T11:02:30;19.35;39.19
66596;SHT31;59017;49.252;18.838;2023-01-28T11:05:14;19.22;38.35
66596;SHT31;59017;49.252;18.838;2023-01-28T11:07:43;19.08;38.72
66596;SHT31;59017;49.252;18.838;2023-01-28T11:12:56;19.04;38.89
66596;SHT31;59017;49.252;18.838;2023-01-28T11:15:21;19.01;40.51
66596;SHT31;59017;49.252;18.838;2023-01-28T11:17:47;19.07;39.79
66596;SHT31;59017;49.252;18.838;2023-01-28T11:20:19;18.95;39.01
66596;SHT31;59017;49.252;18.838;2023-01-28T11:22:46;19.01;40.68
66596;SHT31;59017;49.252;18.838;2023-01-28T11:25:28;18.98;40.63
66596;SHT31;59017;49.252;18.838;2023-01-28T11:27:55;19.02;41.53
66596;SHT31;59017;49.252;18.838;2023-01-28T11:32:55;18.95;40.59
66596;SHT31;59017;49.252;18.838;2023-01-28T11:35:27;18.98;42.38
66596;SHT31;59017;49.252;18.838;2023-01-28T11:37:55;18.99;40.44
66596;SHT31;59017;49.252;18.838;2023-01-28T11:40:20;19.11;40.55
66596;SHT31;59017;49.252;18.838;2023-01-28T11:42:46;19.04;40.65
66596;SHT31;59017;49.252;18.838;2023-01-28T11:45:16;19.07;40.92
66596;SHT31;59017;49.252;18.838;2023-01-28T11:47:48;18.97;40.83
66596;SHT31;59017;49.252;18.838;2023-01-28T11:52:57;19.02;40.52
66596;SHT31;59017;49.252;18.838;2023-01-28T12:08:28;19.02;41.00
66596;SHT31;59017;49.252;18.838;2023-01-28T12:27:42;18.89;43.23
66596;SHT31;59017;49.252;18.838;2023-01-28T12:35:16;18.72;41.94
66596;SHT31;59017;49.252;18.838;2023-01-28T12:43:37;19.26;46.23
66596;SHT31;59017;49.252;18.838;2023-01-28T12:45:57;19.33;44.36
66596;SHT31;59017;49.252;18.838;2023-01-28T12:51:12;19.46;44.13
66596;SHT31;59017;49.252;18.838;2023-01-28T12:56:21;19.56;42.88
66596;SHT31;59017;49.252;18.838;2023-01-28T12:58:55;19.59;41.25
66596;SHT31;59017;49.252;18.838;2023-01-28T13:01:26;19.57;42.98
66596;SHT31;59017;49.252;18.838;2023-01-28T13:03:55;19.62;43.10
66596;SHT31;59017;49.252;18.838;2023-01-28T13:06:26;19.67;42.99
66596;SHT31;59017;49.252;18.838;2023-01-28T13:09:01;19.78;41.82
66596;SHT31;59017;49.252;18.838;2023-01-28T13:11:33;20.05;40.00
66596;SHT31;59017;49.252;18.838;2023-01-28T13:14:00;20.14;40.19
66596;SHT31;59017;49.252;18.838;2023-01-28T13:16:26;20.18;39.17
66596;SHT31;59017;49.252;18.838;2023-01-28T13:18:51;20.14;39.37
66596;SHT31;59017;49.252;18.838;2023-01-28T13:23:48;20.05;40.13
